Time;durP1;ratioP1;P1;durP2;ratioP2;P2;SDS_P1;SDS_P2;PMS_P1;PMS_P2;Temp;Humidity;BMP_temperature;BMP_pressure;BME280_temperature;BME280_humidity;BME280_pressure;Samples;Min_cycle;Max_cycle;Signal;HPM_P1;HPM_P2
2023/02/04 00:00:36;;;;;;;4.60;0.30;;;;;;;3.84;94.57;99680.95;107057;1273;22530;-54
2023/02/04 00:03:26;;;;;;;4.00;0.20;;;;;;;3.76;93.58;99697.48;107090;1268;22531;-55
2023/02/04 00:05:57;;;;;;;2.90;0.30;;;;;;;3.65;91.46;99710.86;107084;1276;22526;-56
2023/02/04 00:08:28;;;;;;;1.00;0.10;;;;;;;3.54;91.40;99701.86;106939;1257;25308;-58
2023/02/04 00:10:59;;;;;;;2.30;0.10;;;;;;;3.42;90.68;99712.98;106959;1264;22740;-56
2023/02/04 00:13:30;;;;;;;0.80;0.10;;;;;;;3.31;91.17;99711.81;106619;1260;22515;-57
2023/02/04 00:16:01;;;;;;;2.60;0.20;;;;;;;3.24;91.23;99709.06;106487;1275;26566;-55
2023/02/04 00:18:32;;;;;;;0.20;0.00;;;;;;;3.17;91.65;99724.16;106554;1260;23125;-56
2023/02/04 00:21:03;;;;;;;0.80;0.10;;;;;;;3.11;92.62;99720.26;106276;1268;225606;-53
2023/02/04 00:23:34;;;;;;;2.50;0.20;;;;;;;3.05;92.98;99720.06;106504;1275;26709;-54
2023/02/04 00:26:06;;;;;;;2.30;0.30;;;;;;;3.00;93.21;99724.09;106516;1276;24556;-57
2023/02/04 00:28:37;;;;;;;2.20;0.40;;;;;;;2.98;93.06;99726.34;106526;1275;22587;-55
2023/02/04 00:31:08;;;;;;;1.30;0.20;;;;;;;2.97;92.95;99738.42;106481;1272;25461;-55
2023/02/04 00:33:41;;;;;;;1.90;0.40;;;;;;;2.97;93.47;99737.95;106487;1262;24355;-57
2023/02/04 00:36:12;;;;;;;2.60;0.30;;;;;;;2.95;93.60;99760.39;106585;1272;22655;-56
2023/02/04 00:38:43;;;;;;;4.60;0.40;;;;;;;2.95;93.59;99758.11;106547;1276;23481;-55
2023/02/04 00:41:14;;;;;;;2.60;0.30;;;;;;;2.93;93.84;99761.77;106502;1259;22524;-57
2023/02/04 00:43:45;;;;;;;3.70;0.20;;;;;;;2.90;94.09;99775.25;106484;1264;24397;-54
2023/02/04 00:46:16;;;;;;;2.70;0.30;;;;;;;2.86;93.73;99782.95;106715;1276;24276;-56
2023/02/04 00:48:46;;;;;;;1.40;0.40;;;;;;;2.77;94.01;99791.31;106491;1276;22582;-56
2023/02/04 00:51:17;;;;;;;2.10;0.30;;;;;;;2.68;94.06;99785.48;106471;1268;26528;-56
2023/02/04 00:53:48;;;;;;;1.90;0.30;;;;;;;2.62;95.01;99786.77;106520;1261;24398;-54
2023/02/04 00:56:19;;;;;;;2.60;0.40;;;;;;;2.56;95.51;99781.89;106517;1274;22529;-55
2023/02/04 00:58:50;;;;;;;2.80;0.40;;;;;;;2.53;95.64;99795.77;106497;1276;22582;-57
2023/02/04 01:01:21;;;;;;;0.90;0.20;;;;;;;2.49;96.09;99806.12;106456;1261;22527;-57
2023/02/04 01:03:52;;;;;;;1.80;0.20;;;;;;;2.43;96.42;99802.95;106635;1259;24276;-58
2023/02/04 01:06:22;;;;;;;2.30;0.20;;;;;;;2.37;96.88;99809.40;106501;1268;25474;-55
2023/02/04 01:08:54;;;;;;;2.10;0.30;;;;;;;2.31;97.15;99826.04;106482;1274;22533;-56
2023/02/04 01:11:25;;;;;;;1.40;0.30;;;;;;;2.23;97.64;99822.15;106520;1268;22530;-55
2023/02/04 01:13:56;;;;;;;2.60;0.30;;;;;;;2.15;97.86;99829.04;106572;1275;22619;-55
2023/02/04 01:16:27;;;;;;;2.80;0.30;;;;;;;2.07;98.46;99835.61;106522;1256;24420;-54
2023/02/04 01:18:59;;;;;;;1.90;0.40;;;;;;;2.01;98.73;99836.31;106546;1276;23188;-55
2023/02/04 01:21:30;;;;;;;1.60;0.30;;;;;;;1.96;99.26;99849.33;106572;1272;22524;-57
2023/02/04 01:24:01;;;;;;;3.40;0.50;;;;;;;1.93;99.21;99840.05;106515;1275;22526;-56
2023/02/04 01:26:32;;;;;;;2.00;0.40;;;;;;;1.89;99.40;99861.94;106504;1275;23948;-55
2023/02/04 01:29:03;;;;;;;1.30;0.40;;;;;;;1.86;99.49;99866.88;106531;1276;22526;-58
2023/02/04 01:31:34;;;;;;;2.90;0.50;;;;;;;1.84;99.34;99876.92;106484;1276;22527;-56
2023/02/04 01:34:06;;;;;;;3.00;0.40;;;;;;;1.83;99.29;99881.50;106492;1268;27570;-56
2023/02/04 01:36:37;;;;;;;1.80;0.40;;;;;;;1.82;99.14;99894.02;106511;1273;22541;-56
2023/02/04 01:39:08;;;;;;;1.80;0.40;;;;;;;1.81;99.20;99900.58;106463;1273;22540;-55
2023/02/04 01:41:39;;;;;;;2.50;0.50;;;;;;;1.78;98.93;99896.00;106613;1271;24388;-56
2023/02/04 01:44:10;;;;;;;4.10;0.90;;;;;;;1.74;98.72;99918.52;106455;1268;22531;-53
2023/02/04 01:46:40;;;;;;;15.30;4.50;;;;;;;1.67;97.80;99932.59;106504;1275;25379;-54
2023/02/04 01:49:12;;;;;;;13.20;4.50;;;;;;;1.58;96.64;99959.41;106469;1275;24394;-54
2023/02/04 01:51:43;;;;;;;13.70;4.20;;;;;;;1.53;96.85;99992.45;106638;1275;22553;-58
2023/02/04 01:54:16;;;;;;;16.90;6.60;;;;;;;1.49;96.64;100006.21;106491;1268;22533;-56
2023/02/04 01:56:50;;;;;;;19.90;6.70;;;;;;;1.43;96.24;100028.64;106596;1268;22527;-56
2023/02/04 01:59:21;;;;;;;17.50;6.50;;;;;;;1.36;96.11;100049.54;106592;1261;22741;-57
2023/02/04 02:01:53;;;;;;;20.00;8.50;;;;;;;1.28;95.90;100062.65;106609;1275;22535;-56
2023/02/04 02:04:29;;;;;;;17.00;5.90;;;;;;;1.18;95.78;100071.70;106986;1263;24374;-56
2023/02/04 02:07:04;;;;;;;18.00;6.60;;;;;;;1.08;95.41;100091.91;106575;1273;22517;-57
2023/02/04 02:09:36;;;;;;;16.40;6.20;;;;;;;1.00;95.21;100106.73;106475;1258;22579;-57
2023/02/04 02:12:08;;;;;;;18.90;6.30;;;;;;;0.93;94.69;100121.77;106526;1276;22527;-55
2023/02/04 02:14:39;;;;;;;15.60;6.00;;;;;;;0.88;94.24;100145.41;106648;1275;22579;-54
2023/02/04 02:17:10;;;;;;;17.20;5.10;;;;;;;0.82;94.29;100150.90;106576;1259;22576;-58
2023/02/04 02:19:43;;;;;;;16.30;5.50;;;;;;;0.77;94.28;100165.27;106505;1276;24112;-57
2023/02/04 02:22:18;;;;;;;16.40;5.70;;;;;;;0.72;94.03;100192.19;106664;1273;22537;-56
2023/02/04 02:24:49;;;;;;;15.60;5.30;;;;;;;0.70;94.00;100205.79;106507;1261;22524;-55
2023/02/04 02:27:20;;;;;;;15.70;4.80;;;;;;;0.64;93.34;100220.95;106508;1273;22810;-55
2023/02/04 02:29:51;;;;;;;15.30;4.70;;;;;;;0.60;93.60;100236.07;106473;1276;25423;-57
2023/02/04 02:32:22;;;;;;;13.10;4.10;;;;;;;0.55;93.59;100255.98;106547;1268;23002;-55
2023/02/04 02:34:53;;;;;;;15.60;4.90;;;;;;;0.51;93.29;100262.23;106479;1276;24217;-54
2023/02/04 02:37:24;;;;;;;12.20;3.80;;;;;;;0.49;93.61;100279.20;106464;1273;22693;-56
2023/02/04 02:39:55;;;;;;;12.70;3.70;;;;;;;0.48;93.22;100297.97;106598;1261;24275;-55
2023/02/04 02:42:27;;;;;;;13.30;3.60;;;;;;;0.46;92.83;100315.51;106685;1268;22604;-56
2023/02/04 02:44:59;;;;;;;12.70;3.80;;;;;;;0.45;92.85;100333.09;106536;1276;25069;-57
2023/02/04 02:47:30;;;;;;;12.00;3.00;;;;;;;0.43;92.98;100349.66;106485;1275;25299;-55
2023/02/04 02:50:01;;;;;;;12.00;3.30;;;;;;;0.41;93.05;100363.81;106519;1276;23029;-56
2023/02/04 02:52:32;;;;;;;12.30;2.50;;;;;;;0.41;92.67;100373.15;106530;1268;25479;-57
2023/02/04 02:55:03;;;;;;;9.10;2.80;;;;;;;0.38;92.09;100394.98;106468;1261;22532;-58
2023/02/04 02:57:34;;;;;;;15.50;3.30;;;;;;;0.36;91.72;100406.70;106536;1271;25344;-55
2023/02/04 03:00:14;;;;;;;11.50;2.80;;;;;;;0.34;92.48;100422.95;106497;1273;24383;-57
2023/02/04 03:02:50;;;;;;;8.50;2.20;;;;;;;0.36;92.69;100444.83;106544;1268;22529;-55
2023/02/04 03:05:21;;;;;;;12.00;2.10;;;;;;;0.36;92.05;100457.30;106615;1275;22520;-57
2023/02/04 03:07:52;;;;;;;8.20;1.70;;;;;;;0.36;92.02;100475.59;106593;1275;22604;-56
2023/02/04 03:10:23;;;;;;;8.50;2.40;;;;;;;0.36;91.86;100483.75;106711;1271;22528;-56
2023/02/04 03:12:54;;;;;;;8.00;1.70;;;;;;;0.36;91.41;100502.66;106498;1252;22539;-57
2023/02/04 03:15:26;;;;;;;8.40;1.80;;;;;;;0.34;91.71;100516.63;106720;1260;22590;-58
2023/02/04 03:17:56;;;;;;;8.70;1.60;;;;;;;0.33;91.60;100536.56;106468;1275;25406;-58
2023/02/04 03:20:30;;;;;;;4.50;1.00;;;;;;;0.31;91.62;100545.52;106482;1268;24242;-54
2023/02/04 03:23:02;;;;;;;5.50;1.20;;;;;;;0.30;91.04;100558.95;106550;1275;25476;-55
2023/02/04 03:25:33;;;;;;;4.50;1.10;;;;;;;0.30;91.79;100575.35;106496;1274;23048;-58
2023/02/04 03:28:05;;;;;;;4.30;1.00;;;;;;;0.28;91.43;100591.05;106449;1273;24389;-57
2023/02/04 03:30:36;;;;;;;4.30;1.10;;;;;;;0.25;91.27;100603.38;106699;1273;22538;-57
2023/02/04 03:33:07;;;;;;;5.70;0.90;;;;;;;0.24;90.79;100624.03;106589;1276;24353;-55
2023/02/04 03:35:38;;;;;;;4.60;0.70;;;;;;;0.22;90.65;100644.98;106496;1275;23158;-56
2023/02/04 03:38:09;;;;;;;3.00;0.70;;;;;;;0.19;90.58;100651.42;106535;1260;23730;-58
2023/02/04 03:40:42;;;;;;;5.80;0.80;;;;;;;0.18;90.28;100677.94;106561;1276;22531;-58
2023/02/04 03:43:13;;;;;;;4.90;0.80;;;;;;;0.17;90.34;100694.58;106480;1275;22490;-58
2023/02/04 03:45:44;;;;;;;5.00;1.30;;;;;;;0.12;89.43;100711.14;106476;1260;25311;-57
2023/02/04 03:48:15;;;;;;;4.50;0.80;;;;;;;0.09;89.33;100720.34;106499;1268;22538;-55
2023/02/04 03:50:46;;;;;;;4.00;0.80;;;;;;;0.07;89.89;100730.84;106445;1268;22526;-57
2023/02/04 03:53:17;;;;;;;5.70;1.10;;;;;;;0.07;89.01;100738.30;106504;1275;24356;-58
2023/02/04 03:55:48;;;;;;;5.60;0.90;;;;;;;0.04;88.82;100754.85;106528;1276;24218;-54
2023/02/04 03:58:19;;;;;;;4.40;1.00;;;;;;;0.03;88.70;100769.29;106510;1261;22550;-57
2023/02/04 04:00:50;;;;;;;7.80;1.30;;;;;;;-0.01;89.03;100786.16;106488;1275;25461;-58
2023/02/04 04:03:21;;;;;;;7.10;1.30;;;;;;;-0.03;88.95;100794.00;106498;1268;22537;-54
2023/02/04 04:05:52;;;;;;;7.00;1.40;;;;;;;-0.04;89.41;100798.00;106495;1275;23216;-55
2023/02/04 04:08:23;;;;;;;6.30;1.50;;;;;;;-0.05;88.97;100798.79;106486;1260;22520;-55
2023/02/04 04:10:54;;;;;;;7.90;1.50;;;;;;;-0.07;88.79;100826.31;106532;1276;22537;-57
2023/02/04 04:13:24;;;;;;;6.80;1.60;;;;;;;-0.08;89.36;100834.77;106496;1276;24224;-55
2023/02/04 04:15:55;;;;;;;7.80;2.20;;;;;;;-0.09;89.34;100843.95;106520;1270;25726;-58
2023/02/04 04:18:26;;;;;;;9.80;1.80;;;;;;;-0.11;89.16;100843.80;106500;1275;25150;-57
2023/02/04 04:20:57;;;;;;;18.40;3.30;;;;;;;-0.11;88.88;100861.75;106464;1271;22597;-58
2023/02/04 04:23:28;;;;;;;12.50;2.50;;;;;;;-0.11;89.00;100869.13;106481;1268;24280;-56
2023/02/04 04:25:59;;;;;;;11.50;2.30;;;;;;;-0.13;88.37;100878.76;106508;1276;22709;-56
2023/02/04 04:28:30;;;;;;;9.30;2.70;;;;;;;-0.16;88.61;100884.17;106504;1261;22702;-57
2023/02/04 04:31:00;;;;;;;14.80;2.90;;;;;;;-0.16;89.36;100899.39;106483;1262;22550;-58
2023/02/04 04:33:31;;;;;;;7.20;1.80;;;;;;;-0.15;89.05;100899.93;106482;1274;25817;-55
2023/02/04 04:36:02;;;;;;;11.70;2.60;;;;;;;-0.16;88.74;100911.55;106504;1276;22556;-55
2023/02/04 04:38:33;;;;;;;10.50;2.00;;;;;;;-0.16;88.77;100921.33;106533;1268;22539;-57
2023/02/04 04:41:04;;;;;;;7.80;1.80;;;;;;;-0.18;88.76;100936.86;106536;1275;24280;-59
2023/02/04 04:43:35;;;;;;;9.50;2.60;;;;;;;-0.19;88.58;100943.67;106494;1268;24318;-55
2023/02/04 04:46:06;;;;;;;9.30;2.20;;;;;;;-0.19;88.32;100954.02;106573;1261;22661;-59
2023/02/04 04:48:37;;;;;;;9.70;2.20;;;;;;;-0.20;88.14;100964.21;106574;1273;25403;-55
2023/02/04 04:51:08;;;;;;;8.80;2.00;;;;;;;-0.21;87.58;100976.83;106461;1274;22536;-56
2023/02/04 04:53:39;;;;;;;7.10;1.70;;;;;;;-0.22;88.37;100984.12;106494;1276;22545;-55
2023/02/04 04:56:10;;;;;;;8.80;1.90;;;;;;;-0.23;88.27;100994.63;106501;1267;25252;-56
2023/02/04 04:58:41;;;;;;;8.70;2.10;;;;;;;-0.24;88.46;101002.85;106547;1275;25509;-58
2023/02/04 05:01:11;;;;;;;8.70;1.70;;;;;;;-0.23;88.70;100999.71;106528;1262;25631;-58
2023/02/04 05:03:42;;;;;;;10.00;2.00;;;;;;;-0.21;88.32;101013.76;106516;1275;24395;-56
2023/02/04 05:06:13;;;;;;;9.70;2.40;;;;;;;-0.19;88.88;101033.13;106496;1272;22632;-57
2023/02/04 05:08:44;;;;;;;10.70;2.60;;;;;;;-0.19;88.49;101036.82;106437;1274;22569;-55
2023/02/04 05:11:15;;;;;;;7.80;2.40;;;;;;;-0.20;87.95;101043.95;106512;1275;22537;-56
2023/02/04 05:13:46;;;;;;;9.30;2.40;;;;;;;-0.22;88.04;101051.23;106482;1275;22523;-58
2023/02/04 05:16:17;;;;;;;11.90;3.40;;;;;;;-0.21;88.63;101062.36;106500;1261;24277;-57
2023/02/04 05:18:48;;;;;;;11.10;2.90;;;;;;;-0.22;88.39;101077.73;106438;1262;23163;-57
2023/02/04 05:21:19;;;;;;;9.80;2.50;;;;;;;-0.23;87.96;101090.59;106532;1271;22608;-54
2023/02/04 05:23:50;;;;;;;10.40;2.40;;;;;;;-0.23;87.89;101108.00;106526;1275;24249;-56
2023/02/04 05:26:21;;;;;;;9.80;2.20;;;;;;;-0.24;88.29;101118.96;106493;1268;23063;-56
2023/02/04 05:28:52;;;;;;;10.00;2.30;;;;;;;-0.24;87.66;101129.15;106544;1276;22530;-56
2023/02/04 05:31:23;;;;;;;9.90;2.80;;;;;;;-0.25;88.21;101145.14;106510;1276;22535;-58
2023/02/04 05:33:54;;;;;;;9.70;2.70;;;;;;;-0.25;88.07;101154.86;106454;1261;22645;-58
2023/02/04 05:36:25;;;;;;;7.80;2.20;;;;;;;-0.25;87.48;101159.10;106586;1273;22517;-55
2023/02/04 05:38:56;;;;;;;10.50;2.10;;;;;;;-0.26;87.29;101172.09;106492;1265;22544;-57
2023/02/04 05:41:27;;;;;;;12.90;3.20;;;;;;;-0.26;87.49;101180.88;106481;1275;22540;-56
2023/02/04 05:43:57;;;;;;;11.10;3.00;;;;;;;-0.25;87.86;101184.34;106553;1265;25444;-57
2023/02/04 05:46:28;;;;;;;10.50;2.90;;;;;;;-0.25;87.44;101191.87;106509;1276;25437;-55
2023/02/04 05:48:59;;;;;;;12.20;2.80;;;;;;;-0.25;87.94;101197.81;106455;1273;22523;-56
2023/02/04 05:51:30;;;;;;;10.10;2.20;;;;;;;-0.25;87.89;101205.04;106389;1276;22529;-56
2023/02/04 05:54:01;;;;;;;12.10;2.80;;;;;;;-0.23;88.00;101214.93;106513;1268;24394;-57
2023/02/04 05:56:35;;;;;;;14.40;2.80;;;;;;;-0.24;87.85;101225.98;106612;1268;22618;-58
2023/02/04 05:59:06;;;;;;;11.90;2.50;;;;;;;-0.25;87.81;101230.36;106567;1255;22538;-58
2023/02/04 06:01:37;;;;;;;13.10;3.30;;;;;;;-0.26;87.70;101237.65;106485;1275;22557;-57
2023/02/04 06:04:08;;;;;;;9.90;2.30;;;;;;;-0.27;87.54;101249.02;106426;1260;22526;-59
2023/02/04 06:06:39;;;;;;;9.70;2.70;;;;;;;-0.29;87.22;101257.00;106442;1274;22538;-54
2023/02/04 06:09:10;;;;;;;10.70;3.90;;;;;;;-0.32;86.88;101260.56;106518;1276;24272;-57
2023/02/04 06:11:41;;;;;;;15.10;3.40;;;;;;;-0.35;87.23;101271.44;106522;1268;26541;-56
2023/02/04 06:14:12;;;;;;;15.10;3.60;;;;;;;-0.33;88.15;101283.14;106460;1268;22530;-56
2023/02/04 06:16:43;;;;;;;11.10;2.60;;;;;;;-0.32;87.85;101290.91;106542;1276;22531;-60
2023/02/04 06:19:14;;;;;;;11.50;2.80;;;;;;;-0.31;88.20;101298.29;106455;1276;25595;-57
2023/02/04 06:21:45;;;;;;;12.30;3.20;;;;;;;-0.31;87.58;101307.38;106486;1276;24394;-58
2023/02/04 06:24:16;;;;;;;11.90;3.50;;;;;;;-0.32;87.91;101313.56;106771;1272;25281;-59
2023/02/04 06:26:47;;;;;;;11.60;2.80;;;;;;;-0.31;87.51;101325.02;107012;1275;23964;-56
2023/02/04 06:29:18;;;;;;;11.90;3.00;;;;;;;-0.34;87.25;101334.33;106984;1275;24268;-55
2023/02/04 06:31:49;;;;;;;9.40;2.40;;;;;;;-0.33;87.33;101344.44;107108;1274;22603;-57
2023/02/04 06:34:20;;;;;;;13.30;3.60;;;;;;;-0.36;87.62;101350.61;106979;1268;22707;-56
2023/02/04 06:36:51;;;;;;;11.30;2.70;;;;;;;-0.35;87.83;101355.79;106991;1273;24301;-57
2023/02/04 06:39:22;;;;;;;9.30;2.20;;;;;;;-0.36;87.72;101363.23;106963;1274;22657;-55
2023/02/04 06:41:53;;;;;;;10.70;2.90;;;;;;;-0.39;87.57;101372.98;106991;1254;22565;-59
2023/02/04 06:44:24;;;;;;;12.30;3.40;;;;;;;-0.42;87.69;101381.12;106937;1260;22545;-57
2023/02/04 06:46:55;;;;;;;11.80;2.30;;;;;;;-0.43;87.75;101390.68;106983;1275;22761;-58
2023/02/04 06:49:25;;;;;;;13.30;3.50;;;;;;;-0.46;87.75;101403.96;106873;1267;23922;-62
2023/02/04 06:51:56;;;;;;;9.10;2.50;;;;;;;-0.48;87.99;101415.14;107390;1260;25529;-58
2023/02/04 06:54:27;;;;;;;9.00;2.60;;;;;;;-0.52;87.85;101431.04;107167;1274;22545;-57
2023/02/04 06:57:05;;;;;;;11.10;2.00;;;;;;;-0.52;88.16;101441.68;107048;1270;24271;-58
2023/02/04 06:59:38;;;;;;;9.00;2.40;;;;;;;-0.54;88.00;101447.14;106942;1267;22549;-57
2023/02/04 07:02:11;;;;;;;12.30;2.70;;;;;;;-0.55;87.96;101457.39;107041;1257;22585;-56
2023/02/04 07:04:42;;;;;;;10.50;3.20;;;;;;;-0.56;88.04;101462.30;106918;1262;22547;-56
2023/02/04 07:07:14;;;;;;;10.80;2.20;;;;;;;-0.58;87.61;101469.89;106918;1266;22536;-56
2023/02/04 07:09:44;;;;;;;9.00;1.90;;;;;;;-0.59;87.25;101478.57;106456;1268;26382;-55
2023/02/04 07:12:15;;;;;;;10.80;2.60;;;;;;;-0.61;87.23;101494.39;106449;1264;22524;-57
2023/02/04 07:14:46;;;;;;;12.00;2.20;;;;;;;-0.63;87.68;101505.25;106415;1268;22542;-55
2023/02/04 07:17:17;;;;;;;7.70;1.90;;;;;;;-0.65;87.42;101506.95;106411;1276;22534;-57
2023/02/04 07:19:48;;;;;;;8.70;2.10;;;;;;;-0.66;87.37;101521.58;106481;1275;24210;-57
2023/02/04 07:22:19;;;;;;;9.30;2.00;;;;;;;-0.66;87.25;101532.09;106492;1274;22541;-58
2023/02/04 07:24:49;;;;;;;6.80;1.90;;;;;;;-0.67;86.71;101538.56;106483;1269;22530;-58
2023/02/04 07:27:20;;;;;;;8.60;1.80;;;;;;;-0.68;86.93;101547.02;106457;1275;25390;-58
2023/02/04 07:29:51;;;;;;;10.80;1.60;;;;;;;-0.69;86.92;101545.20;106463;1274;25471;-56
2023/02/04 07:32:22;;;;;;;7.00;1.50;;;;;;;-0.71;86.88;101551.77;106495;1261;25317;-57
2023/02/04 07:34:53;;;;;;;10.10;2.00;;;;;;;-0.72;86.72;101560.53;106488;1275;22552;-67
2023/02/04 07:37:23;;;;;;;8.00;1.60;;;;;;;-0.74;86.89;101568.40;106517;1271;22561;-58
2023/02/04 07:39:54;;;;;;;8.30;1.60;;;;;;;-0.74;86.88;101574.91;106521;1268;22544;-57
2023/02/04 07:42:25;;;;;;;8.30;1.50;;;;;;;-0.74;86.67;101577.64;106400;1260;22523;-58
2023/02/04 07:44:56;;;;;;;9.50;1.80;;;;;;;-0.75;86.93;101585.63;106378;1270;24276;-57
2023/02/04 07:47:30;;;;;;;9.00;1.80;;;;;;;-0.75;86.78;101589.32;106543;1275;23679;-56
2023/02/04 07:50:01;;;;;;;10.70;2.00;;;;;;;-0.75;87.11;101589.48;106495;1276;22523;-56
2023/02/04 07:52:32;;;;;;;7.20;1.60;;;;;;;-0.74;87.08;101593.55;106498;1269;24276;-54
2023/02/04 07:55:02;;;;;;;10.30;1.80;;;;;;;-0.72;87.23;101594.20;106488;1275;22676;-57
2023/02/04 07:57:33;;;;;;;8.60;1.80;;;;;;;-0.71;87.51;101592.91;106555;1271;26897;-59
2023/02/04 08:00:06;;;;;;;9.10;1.70;;;;;;;-0.69;87.21;101590.58;110422;1273;23136;-57
2023/02/04 08:02:37;;;;;;;8.30;1.60;;;;;;;-0.68;86.90;101593.10;106979;1268;22593;-58
2023/02/04 08:05:09;;;;;;;13.50;2.20;;;;;;;-0.66;86.70;101595.64;106522;1275;24279;-56
2023/02/04 08:07:40;;;;;;;6.40;1.40;;;;;;;-0.64;86.62;101594.27;106625;1268;22762;-58
2023/02/04 08:10:12;;;;;;;7.40;1.50;;;;;;;-0.62;86.47;101598.20;106573;1271;24395;-57
2023/02/04 08:12:43;;;;;;;9.60;1.50;;;;;;;-0.60;86.36;101601.77;106597;1272;22511;-62
2023/02/04 08:15:14;;;;;;;8.30;1.30;;;;;;;-0.57;86.36;101615.97;106524;1264;22529;-56
2023/02/04 08:17:45;;;;;;;6.50;1.50;;;;;;;-0.55;85.69;101624.79;106510;1260;22527;-56
2023/02/04 08:20:17;;;;;;;8.90;1.30;;;;;;;-0.53;85.97;101624.34;106543;1275;24427;-57
2023/02/04 08:22:48;;;;;;;4.20;1.10;;;;;;;-0.51;85.12;101629.23;106687;1275;22685;-63
2023/02/04 08:25:19;;;;;;;8.40;1.90;;;;;;;-0.49;85.66;101629.27;106518;1268;22545;-55
2023/02/04 08:27:50;;;;;;;9.20;1.60;;;;;;;-0.45;86.11;101631.83;106431;1274;22596;-58
2023/02/04 08:30:21;;;;;;;4.70;1.00;;;;;;;-0.42;85.36;101632.26;106353;1268;22605;-63
2023/02/04 08:32:52;;;;;;;7.30;1.20;;;;;;;-0.40;85.52;101643.11;106435;1272;25358;-58
2023/02/04 08:35:23;;;;;;;6.50;1.10;;;;;;;-0.38;85.74;101632.55;106515;1262;24389;-58
2023/02/04 08:37:54;;;;;;;11.90;2.00;;;;;;;-0.36;85.96;101629.45;106453;1276;24409;-58
2023/02/04 08:40:25;;;;;;;8.80;1.60;;;;;;;-0.33;85.78;101633.55;106464;1276;25522;-58
2023/02/04 08:42:56;;;;;;;8.80;1.60;;;;;;;-0.30;86.21;101634.86;106411;1274;24274;-59
2023/02/04 08:45:27;;;;;;;12.90;1.50;;;;;;;-0.26;86.05;101636.22;106488;1269;22524;-58
2023/02/04 08:47:58;;;;;;;9.00;1.30;;;;;;;-0.25;86.10;101637.27;106602;1272;22528;-57
2023/02/04 08:50:29;;;;;;;5.40;1.20;;;;;;;-0.22;86.11;101641.70;106703;1275;22563;-58
2023/02/04 08:53:00;;;;;;;7.10;1.40;;;;;;;-0.21;85.92;101645.48;106653;1268;22702;-58
2023/02/04 08:55:32;;;;;;;10.60;1.70;;;;;;;-0.18;86.02;101646.23;106497;1260;25556;-59
2023/02/04 08:58:03;;;;;;;8.70;1.50;;;;;;;-0.15;85.96;101648.31;106479;1271;22543;-58
2023/02/04 09:00:34;;;;;;;7.30;1.80;;;;;;;-0.11;85.92;101651.74;106503;1262;22533;-59
2023/02/04 09:03:05;;;;;;;9.50;1.50;;;;;;;-0.04;86.08;101657.55;106437;1276;22559;-56
2023/02/04 09:05:36;;;;;;;4.50;1.00;;;;;;;0.07;86.35;101658.77;106455;1275;22611;-57
2023/02/04 09:08:06;;;;;;;12.80;2.10;;;;;;;0.15;85.47;101669.55;106350;1269;23028;-57
2023/02/04 09:10:38;;;;;;;4.20;1.00;;;;;;;0.21;85.15;101670.95;106395;1276;24250;-57
2023/02/04 09:13:10;;;;;;;4.80;0.90;;;;;;;0.25;84.89;101673.75;106389;1275;24243;-54
2023/02/04 09:15:41;;;;;;;8.60;1.10;;;;;;;0.27;84.84;101671.35;106367;1274;22539;-55
2023/02/04 09:18:15;;;;;;;7.50;1.50;;;;;;;0.30;84.93;101674.36;106462;1268;22550;-54
2023/02/04 09:20:47;;;;;;;8.70;1.20;;;;;;;0.32;84.19;101679.41;106438;1273;23290;-55
2023/02/04 09:23:18;;;;;;;5.80;1.00;;;;;;;0.33;83.83;101680.90;106478;1275;24217;-54
2023/02/04 09:25:50;;;;;;;6.10;1.00;;;;;;;0.34;85.16;101688.54;106970;1276;23079;-56
2023/02/04 09:28:21;;;;;;;5.30;1.00;;;;;;;0.38;84.66;101686.86;106667;1270;25407;-55
2023/02/04 09:30:52;;;;;;;6.40;1.30;;;;;;;0.40;84.52;101698.11;106360;1272;25527;-56
2023/02/04 09:33:23;;;;;;;7.70;1.30;;;;;;;0.44;85.41;101699.79;106508;1276;22545;-54
2023/02/04 09:35:54;;;;;;;8.30;0.90;;;;;;;0.47;85.66;101705.10;106416;1273;22537;-57
2023/02/04 09:38:25;;;;;;;7.40;1.10;;;;;;;0.50;84.81;101713.60;106406;1262;22612;-56
2023/02/04 09:40:58;;;;;;;6.10;1.10;;;;;;;0.49;84.01;101718.30;106463;1275;24252;-56
2023/02/04 09:43:31;;;;;;;7.10;1.40;;;;;;;0.48;84.63;101718.99;106894;1254;24237;-57
2023/02/04 09:46:03;;;;;;;9.70;1.40;;;;;;;0.49;84.81;101723.02;106426;1268;22531;-58
2023/02/04 09:48:34;;;;;;;9.00;1.40;;;;;;;0.49;85.03;101728.75;106477;1275;22534;-56
2023/02/04 09:51:08;;;;;;;7.30;1.50;;;;;;;0.49;84.82;101730.71;106432;1271;24324;-57
2023/02/04 09:53:40;;;;;;;9.40;1.60;;;;;;;0.48;84.78;101732.89;106496;1263;22535;-59
2023/02/04 09:56:13;;;;;;;4.90;0.90;;;;;;;0.50;85.33;101727.17;106253;1258;23300;-59
2023/02/04 09:58:44;;;;;;;5.30;1.00;;;;;;;0.48;84.96;101724.49;106246;1269;22626;-54
2023/02/04 10:01:17;;;;;;;6.70;1.20;;;;;;;0.45;85.16;101725.48;106241;1269;24220;-59
2023/02/04 10:03:50;;;;;;;6.60;1.20;;;;;;;0.47;85.55;101726.68;106169;1264;22614;-55
2023/02/04 10:06:23;;;;;;;6.30;1.20;;;;;;;0.49;85.58;101733.92;106459;1269;24265;-57
2023/02/04 10:08:54;;;;;;;7.90;1.20;;;;;;;0.51;85.84;101730.56;106435;1270;25300;-55
2023/02/04 10:11:27;;;;;;;7.00;1.40;;;;;;;0.55;85.55;101739.50;106477;1268;24392;-55
2023/02/04 10:13:58;;;;;;;14.00;1.70;;;;;;;0.55;85.75;101742.33;106483;1276;22711;-58
2023/02/04 10:16:32;;;;;;;9.10;1.50;;;;;;;0.57;85.84;101743.13;107064;1271;23019;-57
2023/02/04 10:19:05;;;;;;;7.90;2.00;;;;;;;0.56;85.99;101743.83;106469;1269;24632;-54
2023/02/04 10:21:37;;;;;;;9.50;1.70;;;;;;;0.57;85.95;101751.13;106501;1274;22664;-57
2023/02/04 10:24:14;;;;;;;5.80;1.20;;;;;;;0.60;85.79;101757.77;106659;1262;25233;-55
2023/02/04 10:26:45;;;;;;;7.10;1.40;;;;;;;0.62;85.23;101758.73;106452;1274;22605;-56
2023/02/04 10:29:18;;;;;;;4.80;1.10;;;;;;;0.64;85.17;101763.86;106465;1261;22538;-55
2023/02/04 10:31:50;;;;;;;6.80;1.60;;;;;;;0.64;85.09;101766.06;106625;1274;22937;-56
2023/02/04 10:34:23;;;;;;;9.40;2.40;;;;;;;0.67;85.03;101772.45;106386;1269;25577;-59
2023/02/04 10:36:56;;;;;;;10.60;1.80;;;;;;;0.69;85.09;101773.42;106523;1275;25587;-59
2023/02/04 10:39:29;;;;;;;6.70;1.60;;;;;;;0.71;84.85;101776.67;106394;1262;25311;-62
2023/02/04 10:42:01;;;;;;;10.70;1.70;;;;;;;0.74;84.54;101778.74;106488;1258;22533;-59
2023/02/04 10:44:35;;;;;;;9.80;1.40;;;;;;;0.74;84.79;101778.36;106422;1275;24252;-60
2023/02/04 10:47:13;;;;;;;5.80;1.20;;;;;;;0.75;84.84;101778.37;106610;1270;23066;-60
2023/02/04 10:49:54;;;;;;;7.70;1.40;;;;;;;0.76;84.57;101779.23;106276;1275;23974;-61
2023/02/04 10:52:25;;;;;;;;;;;;;;;0.78;84.67;101780.11;106757;1271;22507;-59
2023/02/04 10:54:57;;;;;;;8.40;1.20;;;;;;;0.82;84.89;101782.67;106398;1261;22513;-59
2023/02/04 10:57:29;;;;;;;5.70;1.10;;;;;;;0.85;85.01;101788.30;106567;1268;22571;-56
2023/02/04 11:00:02;;;;;;;7.60;1.20;;;;;;;0.87;84.23;101788.80;106379;1272;22564;-58
2023/02/04 11:02:42;;;;;;;7.20;1.40;;;;;;;0.89;84.29;101792.03;106413;1268;22524;-60
2023/02/04 11:05:16;;;;;;;6.40;1.10;;;;;;;0.93;84.72;101798.28;106963;1261;22516;-59
2023/02/04 11:07:49;;;;;;;5.70;1.20;;;;;;;0.94;84.08;101797.67;106656;1276;22654;-60
2023/02/04 11:10:22;;;;;;;7.00;1.50;;;;;;;0.95;83.74;101804.27;106532;1272;25473;-58
2023/02/04 11:13:04;;;;;;;8.00;1.10;;;;;;;0.98;84.28;101808.15;106434;1275;26148;-59
2023/02/04 11:15:45;;;;;;;5.90;1.00;;;;;;;1.03;84.29;101814.34;106279;1254;23068;-60
2023/02/04 11:18:32;;;;;;;6.50;1.00;;;;;;;1.05;83.29;101820.17;108454;1273;23405;-60
2023/02/04 11:21:13;;;;;;;9.50;1.70;;;;;;;1.08;83.47;101815.96;106467;1274;24190;-62
2023/02/04 11:23:44;;;;;;;6.40;1.10;;;;;;;1.16;83.11;101811.81;106414;1270;22539;-61
2023/02/04 11:26:19;;;;;;;7.80;1.20;;;;;;;1.21;83.04;101813.91;106429;1269;24264;-62
2023/02/04 11:28:55;;;;;;;5.10;0.90;;;;;;;1.21;82.62;101813.66;106561;1276;23723;-60
2023/02/04 11:31:42;;;;;;;8.00;1.00;;;;;;;1.19;82.11;101821.04;106718;1276;23280;-60
2023/02/04 11:34:27;;;;;;;7.90;1.10;;;;;;;1.17;82.28;101823.52;106484;1276;22532;-60
2023/02/04 11:37:08;;;;;;;7.60;1.10;;;;;;;1.14;80.79;101834.89;106567;1275;24218;-60
2023/02/04 11:39:41;;;;;;;7.60;0.90;;;;;;;1.11;79.53;101841.63;106521;1268;22526;-59
2023/02/04 11:42:26;;;;;;;6.40;0.70;;;;;;;1.10;81.16;101838.85;106427;1275;22545;-60